Time;durP1;ratioP1;P1;durP2;ratioP2;P2;SDS_P1;SDS_P2;PMS_P1;PMS_P2;Temp;Humidity;BMP_temperature;BMP_pressure;BME280_temperature;BME280_humidity;BME280_pressure;Samples;Min_cycle;Max_cycle;Signal;HPM_P1;HPM_P2
2023/03/21 00:02:19;;;;;;;8.05;1.88;;;23.20;99.90;;;;;;5058367;28;20668;-75
2023/03/21 00:04:49;;;;;;;7.07;1.67;;;23.20;99.90;;;;;;5052883;28;20533;-77
2023/03/21 00:07:20;;;;;;;7.40;1.33;;;23.20;99.90;;;;;;5056697;28;20231;-76
2023/03/21 00:09:51;;;;;;;9.00;1.55;;;23.30;99.90;;;;;;5064198;28;20212;-76
2023/03/21 00:12:23;;;;;;;7.72;1.50;;;23.40;99.90;;;;;;5052157;28;20200;-76
2023/03/21 00:14:54;;;;;;;9.20;2.10;;;23.40;99.90;;;;;;5042628;28;20206;-76
2023/03/21 00:17:31;;;;;;;5.25;1.45;;;23.50;99.90;;;;;;5049630;28;20231;-77
2023/03/21 00:20:04;;;;;;;7.18;1.30;;;23.50;99.90;;;;;;5043198;28;20565;-75
2023/03/21 00:22:37;;;;;;;5.90;1.63;;;23.50;99.90;;;;;;5044198;28;20196;-76
2023/03/21 00:25:09;;;;;;;4.82;1.58;;;23.60;99.90;;;;;;5042973;28;20207;-77
2023/03/21 00:27:41;;;;;;;5.70;1.70;;;23.60;99.90;;;;;;5043858;28;20224;-77
2023/03/21 00:30:13;;;;;;;6.15;1.15;;;23.70;99.90;;;;;;5046406;28;20193;-77
2023/03/21 00:32:49;;;;;;;4.88;1.30;;;23.60;99.90;;;;;;5065268;28;20196;-79
2023/03/21 00:35:20;;;;;;;7.00;1.63;;;23.70;99.90;;;;;;5041413;28;20216;-78
2023/03/21 00:37:51;;;;;;;4.13;1.48;;;23.70;99.90;;;;;;5041052;28;20862;-78
2023/03/21 00:40:22;;;;;;;7.72;1.70;;;23.70;99.90;;;;;;5043349;28;21837;-77
2023/03/21 00:42:53;;;;;;;6.47;1.33;;;23.70;99.90;;;;;;5040937;28;20573;-77
2023/03/21 00:45:26;;;;;;;5.63;1.60;;;23.70;99.90;;;;;;5044156;28;20193;-77
2023/03/21 00:47:59;;;;;;;6.03;1.50;;;23.80;99.90;;;;;;5042933;28;20224;-76
2023/03/21 00:50:31;;;;;;;10.35;2.17;;;23.80;99.90;;;;;;5038960;28;20220;-75
2023/03/21 00:53:02;;;;;;;7.85;1.20;;;23.90;99.90;;;;;;5038726;28;21030;-76
2023/03/21 00:55:33;;;;;;;4.97;1.60;;;24.00;99.90;;;;;;5044645;28;20201;-76
2023/03/21 00:58:05;;;;;;;5.50;1.40;;;24.00;99.90;;;;;;5038871;28;21667;-77
2023/03/21 01:00:38;;;;;;;5.22;1.50;;;24.00;99.90;;;;;;5041397;28;20227;-76
2023/03/21 01:03:13;;;;;;;7.28;1.60;;;24.10;99.90;;;;;;5038859;28;20247;-77
2023/03/21 01:06:05;;;;;;;6.55;1.60;;;24.10;99.90;;;;;;5042880;28;20658;-76
2023/03/21 01:08:38;;;;;;;6.32;1.60;;;24.10;99.90;;;;;;5043872;28;20718;-77
2023/03/21 01:11:11;;;;;;;6.95;1.42;;;24.10;99.90;;;;;;5040345;28;20223;-76
2023/03/21 01:13:42;;;;;;;4.25;1.35;;;24.20;99.90;;;;;;5039114;28;20228;-77
2023/03/21 01:16:13;;;;;;;4.25;1.50;;;24.30;99.90;;;;;;5048857;28;20192;-77
2023/03/21 01:18:47;;;;;;;6.03;1.55;;;24.20;99.90;;;;;;5041046;28;20212;-76
2023/03/21 01:21:18;;;;;;;6.75;1.63;;;24.20;99.90;;;;;;5042309;28;20556;-77
2023/03/21 01:23:49;;;;;;;8.85;1.85;;;24.30;99.90;;;;;;5041658;28;20203;-76
2023/03/21 01:26:20;;;;;;;6.95;1.73;;;24.30;99.90;;;;;;5046463;28;20415;-76
2023/03/21 01:28:51;;;;;;;8.30;1.65;;;24.30;99.90;;;;;;5044997;28;20613;-76
2023/03/21 01:31:23;;;;;;;7.47;1.75;;;24.30;99.90;;;;;;5041135;28;20239;-76
2023/03/21 01:33:56;;;;;;;8.10;1.75;;;24.30;99.90;;;;;;5044642;28;20192;-77
2023/03/21 01:36:28;;;;;;;8.45;1.63;;;24.30;99.90;;;;;;5044701;28;20196;-78
2023/03/21 01:39:02;;;;;;;7.38;1.90;;;24.40;99.90;;;;;;5047249;28;20231;-78
2023/03/21 01:41:34;;;;;;;6.03;1.40;;;24.30;99.90;;;;;;5044429;28;20196;-76
2023/03/21 01:44:06;;;;;;;10.63;1.92;;;24.40;99.90;;;;;;5045335;28;20219;-76
2023/03/21 01:46:45;;;;;;;6.00;1.90;;;24.30;99.90;;;;;;5044217;28;20598;-78
2023/03/21 01:49:23;;;;;;;7.38;1.85;;;24.30;99.90;;;;;;5042546;28;20235;-77
2023/03/21 01:51:58;;;;;;;7.05;1.65;;;24.30;99.90;;;;;;5040399;28;22174;-76
2023/03/21 01:54:36;;;;;;;6.72;1.80;;;24.30;99.90;;;;;;5040326;28;20203;-78
2023/03/21 01:57:10;;;;;;;9.50;1.77;;;24.30;99.90;;;;;;5040588;28;20200;-76
2023/03/21 01:59:45;;;;;;;7.95;1.80;;;24.40;99.90;;;;;;5042800;28;20547;-77
2023/03/21 02:02:24;;;;;;;8.95;1.50;;;24.30;99.90;;;;;;5039627;28;20423;-77
2023/03/21 02:04:57;;;;;;;4.57;1.50;;;24.40;99.90;;;;;;5040177;28;20210;-77
2023/03/21 02:07:34;;;;;;;5.05;1.55;;;24.30;99.90;;;;;;5039771;28;20579;-77
2023/03/21 02:10:08;;;;;;;10.55;1.85;;;24.30;99.90;;;;;;5040064;28;20196;-75
2023/03/21 02:12:43;;;;;;;5.82;1.63;;;24.30;99.90;;;;;;5040814;28;20220;-78
2023/03/21 02:15:16;;;;;;;8.82;1.55;;;24.30;99.90;;;;;;5041768;28;20215;-77
2023/03/21 02:17:54;;;;;;;5.13;1.30;;;24.30;99.90;;;;;;5051399;28;20228;-76
2023/03/21 02:21:02;;;;;;;4.95;1.30;;;24.40;99.90;;;;;;5045474;28;20200;-77
2023/03/21 02:24:18;;;;;;;5.32;1.25;;;24.40;99.90;;;;;;5041194;28;20270;-78
2023/03/21 02:27:07;;;;;;;7.75;1.63;;;24.60;99.90;;;;;;4960426;28;20199;-80
2023/03/21 02:30:13;;;;;;;6.32;1.75;;;24.60;99.90;;;;;;5042767;28;20682;-78
2023/03/21 02:32:58;;;;;;;7.10;1.60;;;24.70;99.90;;;;;;5046014;28;20204;-79
2023/03/21 02:35:51;;;;;;;6.38;1.38;;;24.50;99.90;;;;;;5046223;28;20212;-82
2023/03/21 02:38:31;;;;;;;6.60;1.48;;;24.50;99.90;;;;;;5049028;28;20204;-78
2023/03/21 02:41:08;;;;;;;6.07;1.40;;;24.40;99.90;;;;;;5045547;28;20200;-79
2023/03/21 02:43:46;;;;;;;7.60;1.42;;;24.30;99.90;;;;;;5045652;28;20195;-80
2023/03/21 02:46:20;;;;;;;3.00;1.10;;;24.30;99.90;;;;;;5044524;28;20879;-79
2023/03/21 02:49:00;;;;;;;5.90;1.50;;;24.40;99.90;;;;;;5044709;28;20220;-79
2023/03/21 02:51:34;;;;;;;6.05;1.10;;;24.40;99.90;;;;;;5048586;28;20200;-79
2023/03/21 02:54:11;;;;;;;5.82;1.20;;;24.50;99.90;;;;;;5044416;28;20195;-79
2023/03/21 02:56:43;;;;;;;6.75;1.30;;;24.60;99.90;;;;;;5045889;28;20682;-79
2023/03/21 02:59:14;;;;;;;6.68;1.58;;;24.60;99.90;;;;;;5045411;28;20199;-79
2023/03/21 03:01:46;;;;;;;6.40;1.40;;;24.70;99.90;;;;;;5045900;28;20215;-78
2023/03/21 03:04:25;;;;;;;5.93;1.50;;;24.70;99.90;;;;;;5046963;28;20196;-79
2023/03/21 03:07:18;;;;;;;8.02;1.77;;;24.70;99.90;;;;;;5042652;28;20196;-78
2023/03/21 03:10:04;;;;;;;5.78;1.13;;;24.70;99.90;;;;;;5047427;28;20231;-79
2023/03/21 03:12:44;;;;;;;7.35;1.30;;;24.70;99.90;;;;;;5047909;28;20210;-78
2023/03/21 03:15:27;;;;;;;6.55;1.45;;;24.70;99.90;;;;;;5057159;28;20196;-78
2023/03/21 03:18:07;;;;;;;6.88;1.42;;;24.90;99.90;;;;;;5056963;28;20189;-78
2023/03/21 03:20:47;;;;;;;9.90;1.95;;;25.00;99.90;;;;;;5060099;28;20318;-79
2023/03/21 03:23:29;;;;;;;12.07;2.05;;;25.20;99.90;;;;;;5053803;28;20196;-79
2023/03/21 03:26:07;;;;;;;9.45;1.77;;;25.30;99.90;;;;;;5059208;28;20200;-79
2023/03/21 03:28:41;;;;;;;5.88;1.40;;;25.30;99.90;;;;;;5062547;28;20246;-79
2023/03/21 03:31:15;;;;;;;6.47;1.67;;;25.20;99.90;;;;;;5061602;28;20592;-78
2023/03/21 03:33:50;;;;;;;6.63;1.40;;;25.20;99.90;;;;;;5060086;28;20570;-78
2023/03/21 03:36:22;;;;;;;4.75;1.35;;;25.10;99.90;;;;;;5061604;28;20274;-79
2023/03/21 03:38:55;;;;;;;5.38;1.10;;;25.10;99.90;;;;;;5069030;28;20273;-80
2023/03/21 03:41:32;;;;;;;4.57;1.20;;;25.00;99.90;;;;;;5062984;28;20227;-78
2023/03/21 03:44:05;;;;;;;9.20;1.45;;;24.90;99.90;;;;;;5054245;28;20254;-80
2023/03/21 03:46:41;;;;;;;5.15;1.40;;;24.90;99.90;;;;;;5068130;28;20224;-79
2023/03/21 03:49:16;;;;;;;3.95;1.38;;;24.90;99.90;;;;;;5064807;28;20220;-80
2023/03/21 03:51:56;;;;;;;6.50;1.40;;;24.80;99.90;;;;;;5072487;28;20260;-79
2023/03/21 03:54:33;;;;;;;3.80;1.20;;;24.70;99.90;;;;;;5066888;28;20255;-79
2023/03/21 03:57:08;;;;;;;6.45;1.40;;;24.70;99.90;;;;;;5061900;28;20207;-79
2023/03/21 03:59:41;;;;;;;5.10;1.30;;;24.70;99.90;;;;;;5053842;28;20218;-79
2023/03/21 04:02:12;;;;;;;6.40;1.70;;;24.60;99.90;;;;;;5065194;28;20193;-79
2023/03/21 04:04:43;;;;;;;5.05;1.33;;;24.60;99.90;;;;;;5067121;28;20235;-78
2023/03/21 04:07:15;;;;;;;5.90;1.40;;;24.50;99.90;;;;;;5065235;28;20197;-78
2023/03/21 04:09:48;;;;;;;5.82;1.35;;;24.50;99.90;;;;;;5068975;28;20264;-78
2023/03/21 04:12:21;;;;;;;8.07;1.55;;;24.50;99.90;;;;;;5070776;28;20206;-78
2023/03/21 04:14:52;;;;;;;6.55;1.75;;;24.50;99.90;;;;;;5070497;28;20728;-76
2023/03/21 04:17:23;;;;;;;6.63;1.52;;;24.50;99.90;;;;;;5062519;28;20225;-78
2023/03/21 04:19:54;;;;;;;8.98;1.80;;;24.50;99.90;;;;;;5061709;28;20208;-79
2023/03/21 04:22:27;;;;;;;5.60;1.55;;;24.50;99.90;;;;;;5062245;28;20212;-78
2023/03/21 04:25:00;;;;;;;5.45;1.50;;;24.50;99.90;;;;;;5056797;28;20188;-79
2023/03/21 04:27:33;;;;;;;7.40;1.42;;;24.50;99.90;;;;;;5054717;28;20192;-79
2023/03/21 04:30:04;;;;;;;5.18;1.35;;;24.50;99.90;;;;;;5056240;28;21157;-77
2023/03/21 04:32:38;;;;;;;5.10;1.40;;;24.40;99.90;;;;;;5059976;28;20188;-77
2023/03/21 04:35:11;;;;;;;7.68;1.77;;;24.40;99.90;;;;;;5060629;28;20749;-77
2023/03/21 04:37:42;;;;;;;7.10;1.42;;;24.30;99.90;;;;;;5055176;28;20196;-77
2023/03/21 04:40:16;;;;;;;5.05;1.70;;;24.30;99.90;;;;;;5070187;28;20694;-77
2023/03/21 04:42:49;;;;;;;5.75;1.65;;;24.30;99.90;;;;;;5058237;28;20229;-76
2023/03/21 04:45:21;;;;;;;7.45;1.38;;;24.20;99.90;;;;;;5060931;28;20193;-76
2023/03/21 04:47:57;;;;;;;10.25;1.67;;;24.30;99.90;;;;;;5057900;28;20201;-77
2023/03/21 04:50:28;;;;;;;10.98;1.60;;;24.30;99.90;;;;;;5053044;28;20655;-76
2023/03/21 04:52:59;;;;;;;6.35;1.50;;;24.30;99.90;;;;;;5061842;28;20577;-77
2023/03/21 04:55:31;;;;;;;5.72;1.20;;;24.30;99.90;;;;;;5045151;28;21737;-76
2023/03/21 04:58:05;;;;;;;7.57;1.40;;;24.30;99.90;;;;;;5042304;28;20559;-76
2023/03/21 05:00:37;;;;;;;8.48;1.42;;;24.30;99.90;;;;;;5042730;28;20211;-77
2023/03/21 05:03:10;;;;;;;8.10;1.75;;;24.30;99.90;;;;;;5040619;28;20240;-77
2023/03/21 05:05:41;;;;;;;5.68;1.55;;;24.30;99.90;;;;;;5069236;22;20200;-76
2023/03/21 05:08:15;;;;;;;6.68;1.77;;;24.30;99.90;;;;;;5030265;28;20198;-77
2023/03/21 05:10:50;;;;;;;6.40;1.35;;;24.30;99.90;;;;;;5028508;28;20304;-77
2023/03/21 05:13:23;;;;;;;5.30;1.20;;;24.30;99.90;;;;;;5029604;28;20586;-77
2023/03/21 05:15:55;;;;;;;7.45;1.95;;;24.20;99.90;;;;;;5023965;28;20190;-77
2023/03/21 05:18:26;;;;;;;6.85;1.65;;;24.10;99.90;;;;;;5020966;28;20202;-77
2023/03/21 05:20:59;;;;;;;4.93;1.42;;;24.10;99.90;;;;;;5025419;28;20570;-78
2023/03/21 05:23:37;;;;;;;6.53;1.70;;;24.10;99.90;;;;;;5021493;28;20201;-79
2023/03/21 05:26:09;;;;;;;5.32;1.40;;;24.10;99.90;;;;;;5031370;28;20193;-78
2023/03/21 05:28:43;;;;;;;5.28;1.40;;;24.10;99.90;;;;;;5023918;28;20664;-78
2023/03/21 05:31:15;;;;;;;4.15;1.40;;;24.10;99.90;;;;;;5021915;28;20226;-76
2023/03/21 05:33:52;;;;;;;3.47;1.10;;;24.00;99.90;;;;;;5033041;28;20201;-78
2023/03/21 05:36:24;;;;;;;5.18;1.08;;;24.10;99.90;;;;;;5022886;28;20200;-79
2023/03/21 05:38:55;;;;;;;5.72;1.38;;;24.10;99.90;;;;;;5004288;28;20208;-77
2023/03/21 05:41:26;;;;;;;4.32;1.25;;;24.10;99.90;;;;;;5001980;28;20193;-78
2023/03/21 05:43:59;;;;;;;10.02;1.38;;;24.10;99.90;;;;;;5001773;28;20202;-79
2023/03/21 05:46:31;;;;;;;5.70;1.40;;;24.00;99.90;;;;;;5005048;28;20364;-77
2023/03/21 05:49:02;;;;;;;4.88;1.30;;;23.90;99.90;;;;;;4998756;28;21359;-77
2023/03/21 05:51:33;;;;;;;5.78;1.35;;;23.90;99.90;;;;;;5000238;28;20225;-77
2023/03/21 05:54:05;;;;;;;5.10;1.40;;;23.90;99.90;;;;;;5005382;28;21066;-77
2023/03/21 05:56:36;;;;;;;4.15;1.23;;;23.90;99.90;;;;;;5007428;28;20320;-78
2023/03/21 05:59:09;;;;;;;5.55;1.42;;;23.80;99.90;;;;;;5002850;28;20545;-78
2023/03/21 06:01:41;;;;;;;8.95;1.60;;;23.80;99.90;;;;;;5004135;28;22382;-77
2023/03/21 06:04:12;;;;;;;6.53;1.50;;;23.90;99.90;;;;;;5004312;28;20661;-77
2023/03/21 06:06:45;;;;;;;4.25;1.30;;;23.90;99.90;;;;;;5009657;28;20327;-77
2023/03/21 06:09:16;;;;;;;8.63;1.42;;;23.80;99.90;;;;;;5008208;28;20225;-78
2023/03/21 06:11:50;;;;;;;4.28;1.20;;;23.80;99.90;;;;;;5005006;28;20696;-79
2023/03/21 06:14:25;;;;;;;6.28;1.35;;;23.70;99.90;;;;;;5008191;28;20200;-80
2023/03/21 06:16:57;;;;;;;6.75;1.33;;;23.70;99.90;;;;;;5010399;28;20975;-78
2023/03/21 06:19:28;;;;;;;7.13;1.50;;;23.70;99.90;;;;;;5003925;28;21102;-78
2023/03/21 06:21:59;;;;;;;9.50;1.75;;;23.60;99.90;;;;;;5002353;28;20217;-81
2023/03/21 06:24:30;;;;;;;6.72;1.35;;;23.50;99.90;;;;;;5005317;28;20225;-78
2023/03/21 06:27:01;;;;;;;5.82;1.23;;;23.50;99.90;;;;;;5010609;28;20278;-78
2023/03/21 06:29:37;;;;;;;4.82;1.23;;;23.40;99.90;;;;;;5008201;28;20233;-78
2023/03/21 06:32:11;;;;;;;6.18;1.35;;;23.40;99.90;;;;;;5011748;28;20640;-78
2023/03/21 06:34:42;;;;;;;6.40;1.58;;;23.40;99.90;;;;;;5011354;28;20224;-78
2023/03/21 06:37:14;;;;;;;5.32;1.38;;;23.30;99.90;;;;;;5008794;28;20745;-78
2023/03/21 06:39:50;;;;;;;5.50;1.48;;;23.40;99.90;;;;;;5009789;28;20898;-78
2023/03/21 06:42:21;;;;;;;4.32;1.40;;;23.40;99.90;;;;;;5012875;28;20204;-79
2023/03/21 06:44:54;;;;;;;4.82;1.35;;;23.40;99.90;;;;;;5002529;28;20581;-78
2023/03/21 06:47:26;;;;;;;7.18;1.65;;;23.40;99.90;;;;;;5008263;28;20201;-77
2023/03/21 06:49:57;;;;;;;5.28;1.42;;;23.40;99.90;;;;;;5005964;28;20229;-79
2023/03/21 06:52:28;;;;;;;5.25;1.25;;;23.30;99.90;;;;;;5004501;28;21932;-77
2023/03/21 06:54:59;;;;;;;4.28;1.42;;;23.30;99.90;;;;;;5009545;28;20236;-77
2023/03/21 06:57:31;;;;;;;6.60;1.48;;;23.30;99.90;;;;;;5006603;28;20791;-76
2023/03/21 07:00:04;;;;;;;4.07;1.35;;;23.30;99.90;;;;;;5005888;28;20231;-79
2023/03/21 07:02:35;;;;;;;5.72;1.45;;;23.20;99.90;;;;;;5006437;28;20664;-80
2023/03/21 07:05:07;;;;;;;7.45;1.25;;;23.20;99.90;;;;;;5002285;28;20231;-79
2023/03/21 07:07:39;;;;;;;4.10;1.00;;;23.20;99.90;;;;;;5008953;28;20221;-80
2023/03/21 07:10:12;;;;;;;4.38;1.13;;;23.20;99.90;;;;;;5003836;28;20248;-80
2023/03/21 07:12:43;;;;;;;2.50;1.02;;;23.20;99.90;;;;;;5002780;28;20198;-80
2023/03/21 07:15:16;;;;;;;8.35;1.40;;;23.30;99.90;;;;;;5017998;28;20220;-78
2023/03/21 07:17:48;;;;;;;4.15;1.00;;;23.20;99.90;;;;;;4999830;28;20233;-79
2023/03/21 07:20:19;;;;;;;5.43;1.00;;;23.20;99.90;;;;;;5004958;28;20273;-79
2023/03/21 07:22:51;;;;;;;6.60;1.40;;;23.20;99.90;;;;;;5001482;28;20205;-79
2023/03/21 07:25:22;;;;;;;6.43;2.03;;;23.20;99.90;;;;;;5005132;28;20229;-80
2023/03/21 07:27:54;;;;;;;4.95;1.48;;;23.20;99.90;;;;;;5001077;28;20227;-78
2023/03/21 07:30:27;;;;;;;5.15;1.00;;;23.20;99.90;;;;;;5001206;28;20228;-79
2023/03/21 07:32:58;;;;;;;5.93;1.05;;;23.20;99.90;;;;;;5006564;28;20574;-79
2023/03/21 07:35:29;;;;;;;5.07;1.42;;;23.10;99.90;;;;;;5002113;28;20202;-79
2023/03/21 07:38:00;;;;;;;4.03;1.13;;;23.10;99.90;;;;;;5001461;28;20197;-80
2023/03/21 07:40:32;;;;;;;5.30;1.15;;;23.10;99.90;;;;;;5006191;28;20763;-79
2023/03/21 07:43:03;;;;;;;4.07;1.15;;;23.10;99.90;;;;;;5002700;28;20205;-79
2023/03/21 07:45:36;;;;;;;5.93;1.42;;;23.10;99.90;;;;;;5002223;28;20204;-77
2023/03/21 07:48:08;;;;;;;4.90;1.50;;;23.10;99.90;;;;;;5004008;28;20209;-79
2023/03/21 07:50:39;;;;;;;6.93;1.55;;;23.10;99.90;;;;;;5001769;28;20221;-79
2023/03/21 07:53:10;;;;;;;5.25;1.55;;;23.20;99.90;;;;;;5002105;28;20201;-80
2023/03/21 07:55:41;;;;;;;6.22;1.63;;;23.10;99.90;;;;;;5002110;28;20286;-79
2023/03/21 07:58:12;;;;;;;5.13;1.20;;;23.00;99.90;;;;;;4998593;28;20198;-79
2023/03/21 08:00:45;;;;;;;5.32;1.40;;;23.00;99.90;;;;;;4998691;28;20197;-79
2023/03/21 08:03:17;;;;;;;6.82;1.20;;;23.00;99.90;;;;;;5000446;28;20206;-79
2023/03/21 08:05:48;;;;;;;4.03;1.20;;;23.00;99.90;;;;;;4998428;28;20343;-79
2023/03/21 08:08:22;;;;;;;6.32;1.50;;;22.90;99.90;;;;;;5003482;28;20209;-80
2023/03/21 08:10:53;;;;;;;4.18;1.23;;;22.80;99.90;;;;;;5017909;28;20225;-78
2023/03/21 08:13:25;;;;;;;5.30;1.35;;;22.80;99.90;;;;;;5014367;28;20214;-79
2023/03/21 08:15:59;;;;;;;3.85;1.10;;;22.80;99.90;;;;;;5010972;28;20221;-79
2023/03/21 08:18:30;;;;;;;5.18;1.55;;;22.80;99.90;;;;;;5018760;28;20212;-79
2023/03/21 08:21:04;;;;;;;4.05;1.15;;;22.80;99.90;;;;;;5016841;28;20284;-81
2023/03/21 08:23:38;;;;;;;2.70;1.05;;;22.80;99.90;;;;;;5015223;28;20212;-81
2023/03/21 08:26:10;;;;;;;3.33;1.10;;;22.70;99.90;;;;;;5005100;28;20226;-80
2023/03/21 08:28:41;;;;;;;3.75;1.05;;;22.80;99.90;;;;;;5001882;28;22601;-79
2023/03/21 08:31:16;;;;;;;6.55;1.38;;;22.80;99.90;;;;;;5007016;28;20221;-81
2023/03/21 08:33:49;;;;;;;4.63;1.10;;;22.80;99.90;;;;;;5002348;28;20227;-80
2023/03/21 08:36:21;;;;;;;4.82;1.23;;;22.80;99.90;;;;;;5001103;28;20206;-80
2023/03/21 08:38:55;;;;;;;5.68;1.40;;;22.80;99.90;;;;;;5002002;28;20210;-80
2023/03/21 08:41:27;;;;;;;6.70;1.27;;;22.80;99.90;;;;;;4999881;28;20212;-82
2023/03/21 08:43:58;;;;;;;4.18;0.88;;;22.80;99.90;;;;;;4997869;28;20259;-80
2023/03/21 08:46:32;;;;;;;5.45;0.88;;;22.80;99.90;;;;;;5000849;28;20221;-81
2023/03/21 08:49:03;;;;;;;4.82;0.90;;;22.80;99.90;;;;;;5004044;28;20703;-80
2023/03/21 08:51:36;;;;;;;5.22;1.20;;;22.70;99.90;;;;;;5003027;28;20306;-81
2023/03/21 08:54:07;;;;;;;4.05;1.08;;;22.70;99.90;;;;;;4999062;28;20201;-80
2023/03/21 08:56:41;;;;;;;5.03;1.17;;;22.70;99.90;;;;;;5000656;28;20216;-80
2023/03/21 08:59:12;;;;;;;2.80;0.93;;;22.70;99.90;;;;;;5004180;28;20205;-79
2023/03/21 09:01:46;;;;;;;5.43;1.20;;;22.60;99.90;;;;;;5003613;28;20206;-81
2023/03/21 09:04:17;;;;;;;4.22;1.02;;;22.60;99.90;;;;;;5004372;28;20206;-80
2023/03/21 09:06:50;;;;;;;4.63;1.10;;;22.70;99.90;;;;;;5004542;28;20331;-80
2023/03/21 09:09:21;;;;;;;6.53;1.10;;;22.70;99.90;;;;;;5008051;28;20688;-80
2023/03/21 09:11:53;;;;;;;4.10;1.10;;;22.70;99.90;;;;;;5004343;28;20243;-81
2023/03/21 09:14:24;;;;;;;2.95;1.13;;;22.60;99.90;;;;;;5004125;28;20243;-81
2023/03/21 09:16:57;;;;;;;4.03;1.10;;;22.70;99.90;;;;;;5004531;28;20205;-81
2023/03/21 09:19:29;;;;;;;3.17;1.00;;;22.60;99.90;;;;;;5004588;28;20205;-79
2023/03/21 09:22:00;;;;;;;3.30;1.00;;;22.60;99.90;;;;;;5004756;28;20275;-80
2023/03/21 09:24:31;;;;;;;5.38;1.35;;;22.70;99.90;;;;;;5004527;28;20205;-81
2023/03/21 09:27:03;;;;;;;3.45;1.08;;;22.70;99.90;;;;;;5005715;28;20201;-80
2023/03/21 09:29:34;;;;;;;3.33;0.90;;;22.70;99.90;;;;;;5009393;28;20198;-80
2023/03/21 09:32:07;;;;;;;3.75;1.00;;;22.70;99.90;;;;;;5007311;28;20225;-80
2023/03/21 09:34:39;;;;;;;5.85;1.20;;;22.70;99.90;;;;;;5005990;28;20212;-80
2023/03/21 09:37:12;;;;;;;2.92;1.10;;;22.70;99.90;;;;;;5005332;28;20202;-79
2023/03/21 09:39:44;;;;;;;5.85;1.30;;;22.70;99.90;;;;;;5006387;28;20197;-80
2023/03/21 09:42:30;;;;;;;4.00;1.10;;;22.70;99.90;;;;;;5008840;28;20302;-80
2023/03/21 09:45:12;;;;;;;4.15;1.23;;;22.60;99.90;;;;;;5004564;28;20680;-79
2023/03/21 09:47:52;;;;;;;7.95;1.55;;;22.60;99.90;;;;;;5009234;28;20223;-81
2023/03/21 09:50:26;;;;;;;2.92;0.75;;;22.60;99.90;;;;;;5007899;28;20278;-79
2023/03/21 09:53:00;;;;;;;1.90;0.90;;;22.60;99.90;;;;;;5009513;28;20196;-80
2023/03/21 09:55:33;;;;;;;1.65;0.77;;;22.70;99.90;;;;;;5004831;28;20207;-79
2023/03/21 09:58:09;;;;;;;4.53;0.95;;;22.60;99.90;;;;;;5004209;28;20202;-80
2023/03/21 10:00:45;;;;;;;2.75;0.80;;;22.70;99.90;;;;;;5005213;28;20615;-80
2023/03/21 10:03:26;;;;;;;3.72;0.90;;;22.60;99.90;;;;;;5005396;28;20205;-81
2023/03/21 10:06:00;;;;;;;2.45;0.70;;;22.60;99.90;;;;;;5019897;28;20237;-82
2023/03/21 10:08:35;;;;;;;3.53;0.88;;;22.70;99.90;;;;;;5017595;28;20227;-81
2023/03/21 10:11:14;;;;;;;4.22;0.90;;;22.70;99.90;;;;;;5023891;28;20701;-80
2023/03/21 10:13:51;;;;;;;3.03;0.80;;;22.70;99.90;;;;;;5022376;28;20213;-80
2023/03/21 10:16:26;;;;;;;2.10;0.90;;;22.70;99.90;;;;;;5016328;28;20818;-81
2023/03/21 10:19:28;;;;;;;3.80;0.82;;;22.70;99.90;;;;;;5011889;28;20810;-81
2023/03/21 10:22:05;;;;;;;4.68;0.90;;;22.70;99.90;;;;;;5018611;28;20209;-80
2023/03/21 10:24:40;;;;;;;4.55;0.98;;;22.70;99.90;;;;;;5016694;28;20201;-80
2023/03/21 10:27:14;;;;;;;2.45;0.65;;;22.70;99.90;;;;;;5030303;28;20208;-80
2023/03/21 10:29:56;;;;;;;3.88;1.00;;;22.70;99.90;;;;;;5023278;28;20200;-80
2023/03/21 10:32:27;;;;;;;3.58;0.95;;;22.70;99.90;;;;;;5022971;28;20699;-80
2023/03/21 10:35:02;;;;;;;3.75;0.90;;;22.60;99.90;;;;;;5021335;28;20190;-79
2023/03/21 10:37:35;;;;;;;3.45;0.80;;;22.60;99.90;;;;;;5026646;28;20216;-79
2023/03/21 10:40:08;;;;;;;3.70;0.90;;;22.60;99.90;;;;;;5026239;28;20292;-80
2023/03/21 10:42:39;;;;;;;3.30;0.77;;;22.60;99.90;;;;;;5021686;28;20201;-80
2023/03/21 10:45:18;;;;;;;3.78;0.80;;;22.60;99.90;;;;;;5018496;28;20252;-79
2023/03/21 10:47:54;;;;;;;3.88;0.73;;;22.60;99.90;;;;;;5025979;28;20728;-80
2023/03/21 10:50:32;;;;;;;5.90;1.00;;;22.60;99.90;;;;;;5020442;28;21203;-79
2023/03/21 10:53:04;;;;;;;3.17;0.80;;;22.60;99.90;;;;;;5023337;28;20305;-79
2023/03/21 10:55:36;;;;;;;4.30;0.95;;;22.60;99.90;;;;;;5023143;28;20206;-77
2023/03/21 10:58:12;;;;;;;3.75;0.85;;;22.60;99.90;;;;;;5003153;28;20700;-80
2023/03/21 11:00:45;;;;;;;2.80;0.80;;;22.60;99.90;;;;;;5018443;28;20335;-79
2023/03/21 11:03:24;;;;;;;4.57;1.05;;;22.60;99.90;;;;;;5016794;28;20204;-80
2023/03/21 11:06:04;;;;;;;5.65;0.77;;;22.60;99.90;;;;;;5019435;28;20237;-79
2023/03/21 11:08:41;;;;;;;3.40;0.90;;;22.60;99.90;;;;;;5015579;28;20225;-80
2023/03/21 11:11:21;;;;;;;3.25;0.80;;;22.60;99.90;;;;;;5024645;28;20224;-79
2023/03/21 11:14:05;;;;;;;4.20;0.85;;;22.50;99.90;;;;;;5019798;28;20198;-79
2023/03/21 11:16:41;;;;;;;2.70;0.82;;;22.50;99.90;;;;;;5022983;28;20221;-79
2023/03/21 11:19:20;;;;;;;4.55;0.88;;;22.50;99.90;;;;;;5021287;28;20304;-79
2023/03/21 11:21:53;;;;;;;2.97;0.65;;;22.50;99.90;;;;;;5018534;28;20691;-80
2023/03/21 11:24:25;;;;;;;3.58;0.80;;;22.60;99.90;;;;;;5012344;28;20202;-80
2023/03/21 11:27:07;;;;;;;3.85;0.95;;;22.50;99.90;;;;;;5019139;28;20317;-79
2023/03/21 11:29:43;;;;;;;3.88;0.95;;;22.50;99.90;;;;;;5018266;28;20214;-79
2023/03/21 11:32:19;;;;;;;3.35;0.70;;;22.50;99.90;;;;;;5016626;28;20750;-79
2023/03/21 11:34:56;;;;;;;4.57;0.88;;;22.50;99.90;;;;;;5022180;28;20294;-80
2023/03/21 11:37:33;;;;;;;3.40;0.80;;;22.50;99.90;;;;;;5016448;28;20194;-80
2023/03/21 11:40:20;;;;;;;4.72;1.10;;;22.50;99.90;;;;;;5018185;28;20225;-79
2023/03/21 11:42:52;;;;;;;3.53;1.00;;;22.50;99.90;;;;;;5018220;28;20604;-81
2023/03/21 11:45:25;;;;;;;4.35;1.05;;;22.50;99.90;;;;;;5022156;28;20201;-79
2023/03/21 11:47:58;;;;;;;6.57;1.20;;;22.50;99.90;;;;;;5020771;28;20210;-80
2023/03/21 11:50:36;;;;;;;3.80;0.95;;;22.50;99.90;;;;;;5020780;28;20263;-79
2023/03/21 11:53:25;;;;;;;5.00;1.00;;;22.40;99.90;;;;;;5019975;28;20198;-79
2023/03/21 11:56:09;;;;;;;3.65;1.02;;;22.40;99.90;;;;;;5015740;28;20232;-80
2023/03/21 11:58:48;;;;;;;2.70;0.90;;;22.40;99.90;;;;;;5021536;28;20197;-79
2023/03/21 12:01:26;;;;;;;2.80;0.93;;;22.40;99.90;;;;;;5020992;28;20208;-80
2023/03/21 12:04:10;;;;;;;5.40;0.90;;;22.40;99.90;;;;;;5017223;28;20198;-80
2023/03/21 12:06:47;;;;;;;4.38;1.15;;;22.30;99.90;;;;;;5017563;28;20232;-79
2023/03/21 12:09:34;;;;;;;4.22;0.90;;;22.30;99.90;;;;;;5021609;28;20197;-79
2023/03/21 12:12:41;;;;;;;3.05;1.00;;;22.40;99.90;;;;;;5015454;28;20221;-78
2023/03/21 12:15:19;;;;;;;3.75;1.20;;;22.40;99.90;;;;;;5022934;28;20193;-79
2023/03/21 12:17:59;;;;;;;4.25;1.08;;;22.30;99.90;;;;;;5015854;28;20217;-79
2023/03/21 12:20:42;;;;;;;4.35;0.88;;;22.40;99.90;;;;;;5014751;28;20202;-80
2023/03/21 12:23:39;;;;;;;4.15;1.30;;;22.40;99.90;;;;;;5018458;28;20210;-78
2023/03/21 12:26:22;;;;;;;5.18;0.90;;;22.40;99.90;;;;;;5020626;28;20699;-78
2023/03/21 12:29:08;;;;;;;4.20;1.00;;;22.40;99.90;;;;;;5020435;28;20255;-79
2023/03/21 12:31:53;;;;;;;6.22;1.17;;;22.30;99.90;;;;;;5022147;28;20224;-79
2023/03/21 12:34:44;;;;;;;3.50;1.10;;;22.30;99.90;;;;;;5014878;28;20218;-78
2023/03/21 12:37:26;;;;;;;5.72;1.00;;;22.30;99.90;;;;;;5017990;28;20204;-80
2023/03/21 12:40:03;;;;;;;5.05;1.08;;;22.30;99.90;;;;;;5013860;28;20190;-79
2023/03/21 12:42:58;;;;;;;3.67;1.13;;;22.40;99.90;;;;;;5020958;28;20227;-77
2023/03/21 12:45:34;;;;;;;5.68;1.10;;;22.40;99.90;;;;;;5015082;28;20201;-78
2023/03/21 12:48:17;;;;;;;3.13;1.02;;;22.40;99.90;;;;;;5022821;28;20216;-80
2023/03/21 12:50:50;;;;;;;4.55;1.33;;;22.40;99.90;;;;;;5017778;28;20280;-80
2023/03/21 12:53:36;;;;;;;4.53;1.10;;;22.40;99.90;;;;;;5015385;28;20200;-79
2023/03/21 12:56:14;;;;;;;4.80;0.88;;;22.40;99.90;;;;;;5017968;28;20197;-80
2023/03/21 12:58:53;;;;;;;3.90;0.93;;;22.40;99.90;;;;;;5022315;28;20204;-79
2023/03/21 13:01:26;;;;;;;4.80;1.05;;;22.40;99.90;;;;;;5019807;28;20201;-80
2023/03/21 13:04:10;;;;;;;3.65;1.20;;;22.40;99.90;;;;;;5019574;28;20243;-79
2023/03/21 13:06:42;;;;;;;6.10;1.02;;;22.40;99.90;;;;;;5015629;28;20253;-80
2023/03/21 13:09:23;;;;;;;5.18;1.10;;;22.40;99.90;;;;;;5019204;28;20751;-79
2023/03/21 13:12:00;;;;;;;3.60;0.90;;;22.30;99.90;;;;;;5018486;28;20325;-79
2023/03/21 13:14:42;;;;;;;3.60;0.93;;;22.20;99.90;;;;;;5024271;28;20802;-80
2023/03/21 13:17:21;;;;;;;3.85;0.80;;;22.30;99.90;;;;;;5020664;28;20202;-78
2023/03/21 13:20:00;;;;;;;3.00;0.70;;;22.20;99.90;;;;;;5010090;28;20584;-79
2023/03/21 13:22:33;;;;;;;1.75;0.70;;;22.20;99.90;;;;;;5019092;28;20197;-80
2023/03/21 13:25:07;;;;;;;6.43;1.17;;;22.30;99.90;;;;;;5020442;28;20197;-80
2023/03/21 13:27:40;;;;;;;3.85;1.08;;;22.30;99.90;;;;;;5025217;28;20201;-79